Kamyslov, Russia
Current Conditions -  °F | °C
As of 9:00 AM on Monday 26 Jan 2015 (Local Time) from USSS Reporting Station
Overcast Overcast  
Wind Chill: -2°   Ceiling: 2900
Heat Index: 10°   Visibility: 6mi
Dew Point:   Wind: 9mph
Humidity: 85%   Direction: 250°WSW
Pressure: 30.53"   Gusts: NA
Location:  56.85°N, 62.72°E
Report Text: USSS 260400Z 25004MPS 9999 BKN029 OVC067 M12/M14 Q1034 76820350NOSIG RMK QFE755
Loading
Personal Weather Stations






























Interactive Weather Map New forecast layout! Learn more

10-Day Weather Forecast

Advertisements
Track Severe Weather on mobile